Lykens, Ohio
Current Conditions -  °F | °C
As of 1:53 AM on Wednesday 26 Nov 2014 (Local Time) from KMNN Reporting Station
Overcast Overcast  
Wind Chill: 23°   Ceiling: 1600
Heat Index: 29°   Visibility: 9mi
Dew Point: 23°   Wind: 6mph
Humidity: 78%   Direction: 10°N
Pressure: 30.15"   Gusts: NA
Location:  40.9956°N, 82.9974°W
Report Text: KMNN 260653Z AUTO 01005KT 9SM OVC016 M02/M05 A3015 RMK AO2 SLP222 T10171050 TSNO
Loading
Personal Weather Stations






























Interactive Weather Map New forecast layout! Learn more

10-Day Weather Forecast

Advertisements
Track Severe Weather on mobile